Skip Navigation Links
NOAA logo - Click to go to the NOAA homepage
NOAA's National Weather Service
Alaska Aviation Weather Unit
  NWS logo - Click to go to the NWS homepage
Left Navbar Graphic     01 AKDT = 09 GMT

   
NOAA is celebrating 200 years of science, service, and stewardship. Visit the NOAA 200th celebration Web site to learn more.
USA.gov is the U.S. Government's official Web portal to all Federal, state and local government Web resources and services.
Facebook
NWS on Facebook

Important Change Regarding the AAWU Web Presence

 

Over the last several months, the AAWU has been working to navigate its webpages to a nationally supported server. Security, as well as other needs, have necessitated the change.  We have been given an extension for the site changeover while we diligently work at addressing feedback received. As of July 14, 2017, aawu.arh.noaa.gov will be discontinued. The new AAWU web address is weather.gov/aawu. It is now live and will run in-parallel with the old site until it is discontinued on July 14, 2017. Please continue to send any feedback or questions regarding the new webpages to nws.ar.aawu.webauthors@noaa.gov.  Thank you for your patience during this time of transition.
AAWU Home :: Display TAF Add Bookmark
METAR PAOU 190356Z AUTO 27005KT 9SM -RA FEW018 OVC055 11/11 A2984
 RMK AO2 RAB45 SLPNO P0000 T01110106=

SPECI PAOU 190410Z AUTO 28004KT 8SM -RA BKN018 OVC055 11/11 A2983
 RMK AO2 P0000=

SPECI PAOU 190434Z AUTO 26003KT 10SM FEW009 BKN016 OVC050 11/11 A2983
     RMK AO2 RAE29 P0000=

SPECI PAOU 190447Z AUTO 29003KT 7SM FEW009 SCT016 OVC050 11/11 A2982 RMK
     AO2 RAE29 P0000=

METAR PAOU 190456Z AUTO 26003KT 8SM FEW007 OVC050 11/11 A2982 RMK AO2
     RAE29 SLP099 P0000 T01110106=

SPECI PAOU 190540Z AUTO 32003KT 6SM BR BKN008 OVC050 11/11 A2981 RMK
 AO2=

METAR PAOU 190556Z AUTO 36004KT 9SM SCT008 OVC048 11/10 A2982 RMK
 AO2 SLP096 60000 T01110100 10122 20111 58004=

METAR PAOU 190756Z AUTO 03005KT 8SM OVC060 11/10 A2981 RMK AO2
 SLP094 T01110100 401220106=

SPECI PAOU 190824Z AUTO 07003KT 9SM SCT008 OVC060 11/10 A2981 RMK
 AO2=

METAR PAOU 190856Z AUTO 06005KT 10SM OVC060 11/10 A2981 RMK AO2
 SLP094 T01060100 58002=


NOAA's National Weather Service
Alaska Aviation Weather Unit
6930 Sand Lake Road
Anchorage, AK 99502-1845
Disclaimer
Credits
Glossary
Privacy Policy
About Us
Career Opportunities
Contact AAWU Internet Services Site last modified: April, 17th 2012